Aérodrome :
LOGIN :

S'inscrire | Disclaimer

   EN    FR    IT 

 










Légende :    VFR   VFR Marginal   IFR   IFR Intensif   IFR Très Intensif
Visi : 
Plafond : 
>= 8 km
>= 3000ft
5 à 8 km
1000 à 3000 ft
1500m à 5 km
500 à 1000 ft
800 à 1500m
200 à 500 ft
< 800m
< 200 ft
Symboles :   Orages  Brouillard  Fortes neiges  Fortes précipitations  Vent > 20 kt
SIGMETs :   Divers  Orages  Givrage  Turbulence  Onde Orograph.  Cendres Volcan.







- Altitude de l'aérodrome : 160 ft
- Code IATA : LRT
- Voir les cartes d'approche


LFRH - Lorient Lann Bihoue

DERNIER METAR :
  • 200330Z AUTO 06002KT 0350 0300 R25/0400N R07/0400N FG VV/// 02/02 Q1023 TEMPO 1000 BCFG

METARs EXPIRÉS :
  • 200300Z AUTO 06001KT 0550 0500 R25/0550D R07/0700D FG VV/// 03/02 Q1024 TEMPO 5000 BR
  • 200230Z AUTO 07003KT 0300 0250 R25/0300N R07/0350N FG VV/// 03/02 Q1024 TEMPO 5000 BR
  • 200200Z AUTO 07002KT 0700 0550 R25/1100D R07/0500D FG VV/// 03/03 Q1024 TEMPO 5000 BR
  • 200130Z AUTO 05002KT 0650 0600 R25/0800U R07/0700U FG VV/// 03/02 Q1025 TEMPO 5000 BR
  • 200100Z AUTO 09002KT 0650 0600 R25/0900D R07/0900D FG VV/// 03/03 Q1025 TEMPO 5000 BR

TAF TAF LFRH
Valide du 20 à 00h jusqu'au 21 à 00h UTC


192300Z 2000/2024 VRB02KT 0300 FG VV///
PROB30
TEMPO 2000/2006 1000 BCFG
PROB30
TEMPO 2001/2005 5000 BR BKN015
BECMG 2008/2010 5000 BR SCT015
BECMG 2010/2012 21010KT 9999 NSW
BECMG 2021/2023 SCT008
Pas de NOTAMs connus pour ce terrain.



MET'MAP, la Météo Aéronautique d'un coup d'oeil ! - Copyright ORBIFLY Décembre 2007 - Disclaimer

ORBIFLY MET'MAP TEAM :

Programmation & Développement : Alexandra Zaïnal
Conception & Développement : Baudouin d'Aumeries
Co-Programmation & Développement : Marc-Olivier Méhu
Soutien technique & logistique : Manuel Goepfert

Contact : metmap@orbifly.com




SOURCES & CREDITS :

   NOAA